METAR Data
IDs: Format: Raw Decoded Include TAF

Data at: 1828 UTC 16 Oct 2021

KBGD 161751Z AUTO 24012G22KT 10SM CLR 19/M01 A3040 RMK AO2 SLP280 T01891011 10194 20028 58012
KBGD 161651Z AUTO 21010G19KT 10SM CLR 17/M01 A3042 RMK AO2 SLP285 T01721006
KBGD 161551Z AUTO 24011KT 10SM CLR 14/M01 A3043 RMK AO2 SLP293 T01391011
KBGD 161451Z AUTO 27004KT 10SM CLR 09/00 A3044 RMK AO2 SLP299 T00940000 53010
KBGD 161351Z AUTO 26003KT 10SM CLR 06/M01 A3043 RMK AO2 SLP298 T00561011
KBGD 161251Z AUTO 25003KT 10SM CLR 03/M02 A3042 RMK AO2 SLP297 T00331022
KBGD 161151Z AUTO 27004KT 10SM CLR 03/M03 A3041 RMK AO2 SLP291 T00331028 10078 20033 53007
KBGD 161051Z AUTO 27004KT 10SM CLR 04/M03 A3039 RMK AO2 SLP283 T00391028
KBGD 160951Z AUTO 25003KT 10SM CLR 04/M03 A3038 RMK AO2 SLP278 T00441028
KBGD 160851Z AUTO 21005KT 10SM CLR 06/M03 A3039 RMK AO2 SLP278 T00611028 53007
KBGD 160751Z AUTO 23007KT 10SM CLR 04/M02 A3037 RMK AO2 SLP277 T00391017
KBGD 160651Z AUTO 00000KT 10SM CLR 07/M02 A3037 RMK AO2 SLP274 T00721017
KBGD 160551Z AUTO 00000KT 10SM CLR 08/M02 A3036 RMK AO2 SLP270 T00781017 10156 20072 401780061 50007
KBGD 160451Z AUTO 20003KT 10SM CLR 10/M02 A3037 RMK AO2 SLP272 T01001022
KBGD 160351Z AUTO 00000KT 10SM CLR 10/M02 A3035 RMK AO2 SLP269 T01001022
KBGD 160251Z AUTO 00000KT 10SM CLR 12/M03 A3034 RMK AO2 SLP263 T01221033 53013
KBGD 160151Z AUTO 03004KT 10SM CLR 13/M03 A3033 RMK AO2 SLP259 T01281033
KBGD 160051Z AUTO 36005KT 10SM CLR 13/M03 A3031 RMK AO2 SLP256 T01331028
KBGD 152351Z AUTO 35008KT 10SM CLR 16/M02 A3030 RMK AO2 SLP249 T01561022 10178 20144 53007
KBGD 152251Z AUTO 34013G21KT 10SM CLR 17/M03 A3029 RMK AO2 SLP244 T01671028
KBGD 152151Z AUTO 35010G24KT 10SM FEW070 17/M02 A3028 RMK AO2 SLP241 T01721017
KBGD 152051Z AUTO 01009KT 10SM SCT065 17/M01 A3028 RMK AO2 SLP238 T01721011 55006
KBGD 151951Z AUTO 36014G21KT 10SM SCT060 17/M01 A3028 RMK AO2 SLP238 T01721011
KBGD 151851Z AUTO 35013G19KT 10SM FEW050 16/00 A3029 RMK AO2 PK WND 35026/1804 SLP243 T01610000
KBGD 151751Z AUTO 02011G24KT 10SM CLR 15/01 A3030 RMK AO2 SLP245 T01500006 10161 20061 50010
KBGD 151651Z AUTO 36010G16KT 10SM CLR 13/02 A3030 RMK AO2 SLP246 T01330017
KBGD 151551Z AUTO 34012KT 10SM CLR 12/01 A3029 RMK AO2 SLP245 T01220011
KBGD 151451Z AUTO 36012KT 10SM FEW070 11/01 A3026 RMK AO2 SLP236 T01110006 53025
KBGD 151351Z AUTO 36011KT 10SM CLR 08/00 A3023 RMK AO2 SLP227 T00780000
KBGD 151251Z AUTO 34012G22KT 10SM CLR 06/01 A3021 RMK AO2 SLP220 T00610006
KBGD 151151Z AUTO 33010KT 10SM CLR 06/01 A3018 RMK AO2 SLP206 T00610006 10094 20061 53033
KBGD 151051Z AUTO 34009KT 10SM CLR 06/01 A3013 RMK AO2 SLP187 T00610006
KBGD 150951Z AUTO 35008KT 10SM CLR 07/01 A3010 RMK AO2 SLP172 T00670011
KBGD 150851Z AUTO 35007KT 10SM CLR 08/02 A3008 RMK AO2 SLP165 T00780017 53014
KBGD 150751Z AUTO 35005KT 10SM CLR 08/03 A3006 RMK AO2 SLP161 T00830028
KBGD 150651Z AUTO 02007KT 10SM CLR 08/03 A3004 RMK AO2 SLP154 T00830033